Time;durP1;ratioP1;P1;durP2;ratioP2;P2;SDS_P1;SDS_P2;PMS_P1;PMS_P2;Temp;Humidity;BMP_temperature;BMP_pressure;BME280_temperature;BME280_humidity;BME280_pressure;Samples;Min_cycle;Max_cycle;Signal;HPM_P1;HPM_P2
2022/11/08 00:03:32;;;;;;;4.28;1.30;;;12.30;1.00;;;;;;5086526;28;20271;-79
2022/11/08 00:14:11;;;;;;;4.13;1.50;;;12.10;1.00;;;;;;5086439;28;20216;-81
2022/11/08 00:16:38;;;;;;;4.20;1.42;;;12.00;1.00;;;;;;5084876;28;20588;-85
2022/11/08 00:19:04;;;;;;;3.78;1.20;;;12.00;1.00;;;;;;5086079;28;20622;-84
2022/11/08 00:21:29;;;;;;;4.72;1.70;;;12.40;1.00;;;;;;5086967;28;20242;-83
2022/11/08 00:23:55;;;;;;;6.93;1.80;;;11.90;1.00;;;;;;5087153;28;20734;-83
2022/11/08 00:26:20;;;;;;;3.90;2.03;;;11.70;1.00;;;;;;5085296;28;20192;-82
2022/11/08 00:28:46;;;;;;;4.73;1.83;;;12.40;1.00;;;;;;5085610;28;20906;-80
2022/11/08 00:31:12;;;;;;;6.43;1.38;;;11.10;1.00;;;;;;5085268;28;20945;-82
2022/11/08 00:33:37;;;;;;;4.90;1.50;;;12.20;1.00;;;;;;5085302;28;20185;-84
2022/11/08 00:36:03;;;;;;;5.20;1.65;;;11.40;1.00;;;;;;5085466;28;20216;-80
2022/11/08 00:38:29;;;;;;;3.80;1.60;;;11.40;1.00;;;;;;5090584;28;20184;-83
2022/11/08 00:40:54;;;;;;;4.03;1.60;;;11.30;1.00;;;;;;5091345;28;20184;-82
2022/11/08 00:43:20;;;;;;;5.30;2.17;;;11.30;1.00;;;;;;5090014;28;20269;-82
2022/11/08 00:45:46;;;;;;;4.43;1.50;;;11.10;1.00;;;;;;5091361;28;20204;-83
2022/11/08 00:48:11;;;;;;;9.87;2.67;;;11.00;1.00;;;;;;5089348;28;21303;-81
2022/11/08 00:50:38;;;;;;;4.27;1.60;;;11.10;1.00;;;;;;5091118;28;20192;-81
2022/11/08 00:53:04;;;;;;;4.93;1.60;;;11.20;1.00;;;;;;5091221;28;20188;-80
2022/11/08 00:55:29;;;;;;;6.53;2.10;;;11.70;1.00;;;;;;5090919;28;21431;-85
2022/11/08 00:57:55;;;;;;;4.20;1.50;;;11.90;1.00;;;;;;5089882;28;20560;-81
2022/11/08 01:00:21;;;;;;;3.83;1.77;;;11.40;1.00;;;;;;5089478;28;20189;-82
2022/11/08 01:02:47;;;;;;;3.37;1.50;;;11.20;1.00;;;;;;5089464;28;20177;-85
2022/11/08 01:05:13;;;;;;;2.33;1.37;;;11.20;1.00;;;;;;5089624;28;20200;-80
2022/11/08 01:07:39;;;;;;;4.30;1.80;;;11.10;1.00;;;;;;5089866;28;20594;-83
2022/11/08 01:10:05;;;;;;;4.30;1.67;;;11.00;1.00;;;;;;5090156;28;20192;-84
2022/11/08 01:12:30;;;;;;;4.53;1.50;;;10.90;1.00;;;;;;5089198;28;20199;-85
2022/11/08 01:14:56;;;;;;;5.03;2.00;;;10.90;1.00;;;;;;5085942;28;20216;-83
2022/11/08 01:17:22;;;;;;;3.90;1.63;;;10.90;1.00;;;;;;5087529;28;20199;-82
2022/11/08 01:19:48;;;;;;;6.93;2.17;;;10.80;1.00;;;;;;5089202;28;20203;-81
2022/11/08 01:22:13;;;;;;;4.07;1.50;;;10.70;1.00;;;;;;5091523;28;20226;-82
2022/11/08 01:24:39;;;;;;;4.27;1.63;;;10.60;1.00;;;;;;5091929;28;20208;-82
2022/11/08 01:27:04;;;;;;;5.27;1.80;;;11.30;1.00;;;;;;5092819;28;20665;-83
2022/11/08 01:29:31;;;;;;;5.93;1.87;;;10.80;1.00;;;;;;5092095;28;20214;-83
2022/11/08 01:31:57;;;;;;;8.90;2.03;;;10.40;1.00;;;;;;5087414;28;20185;-82
2022/11/08 01:34:22;;;;;;;4.43;1.63;;;10.40;1.00;;;;;;5087448;28;20215;-84
2022/11/08 01:36:48;;;;;;;3.10;1.60;;;10.40;1.00;;;;;;5087768;28;20224;-82
2022/11/08 01:39:15;;;;;;;4.17;1.60;;;10.20;2.90;;;;;;5087287;28;20197;-81
2022/11/08 01:41:40;;;;;;;5.40;1.80;;;10.00;11.90;;;;;;5089158;28;20540;-81
2022/11/08 01:44:15;;;;;;;3.80;1.50;;;10.20;15.30;;;;;;5087345;28;20204;-79
2022/11/08 01:46:44;;;;;;;4.30;1.90;;;9.90;26.60;;;;;;5087611;28;20192;-82
2022/11/08 01:49:24;;;;;;;4.97;2.03;;;9.80;47.50;;;;;;5087675;28;20188;-79
2022/11/08 01:52:18;;;;;;;6.93;1.80;;;9.80;45.80;;;;;;5088814;28;20184;-79
2022/11/08 01:54:50;;;;;;;5.53;2.10;;;9.70;51.60;;;;;;5087018;28;20248;-79
2022/11/08 01:57:21;;;;;;;4.73;2.47;;;9.70;67.00;;;;;;5087289;28;20650;-82
2022/11/08 01:59:51;;;;;;;2.47;1.40;;;9.70;81.10;;;;;;5088310;28;20557;-80
2022/11/08 02:02:18;;;;;;;3.07;1.50;;;9.70;79.50;;;;;;5079798;28;20191;-79
2022/11/08 02:04:44;;;;;;;3.43;1.90;;;9.50;93.60;;;;;;5086900;28;20620;-79
2022/11/08 02:07:12;;;;;;;6.13;1.70;;;9.60;99.90;;;;;;5088686;28;20185;-81
2022/11/08 02:09:40;;;;;;;3.87;1.73;;;9.40;99.90;;;;;;5087248;28;20552;-81
2022/11/08 02:12:07;;;;;;;6.30;2.03;;;10.00;99.90;;;;;;5086496;28;20276;-83
2022/11/08 02:14:33;;;;;;;3.30;2.40;;;9.70;99.90;;;;;;5088140;28;21259;-80
2022/11/08 02:16:59;;;;;;;4.83;2.00;;;9.30;99.90;;;;;;5087111;28;20201;-79
2022/11/08 02:19:40;;;;;;;3.47;1.90;;;9.30;99.90;;;;;;5088109;28;20189;-79
2022/11/08 02:22:17;;;;;;;6.90;2.20;;;9.20;99.90;;;;;;5079021;28;20193;-82
2022/11/08 02:24:43;;;;;;;6.03;2.30;;;9.20;99.90;;;;;;5086455;28;20220;-79
2022/11/08 02:27:10;;;;;;;5.93;1.93;;;9.10;99.90;;;;;;5086879;28;20189;-79
2022/11/08 02:29:36;;;;;;;7.67;2.50;;;9.20;99.90;;;;;;5088015;28;20242;-83
2022/11/08 02:32:03;;;;;;;6.97;2.23;;;9.30;99.90;;;;;;5086864;28;20681;-85
2022/11/08 02:34:48;;;;;;;5.17;2.40;;;9.30;99.90;;;;;;5086935;28;20208;-80
2022/11/08 02:37:15;;;;;;;3.27;2.30;;;9.50;99.90;;;;;;5088308;28;20188;-80
2022/11/08 02:39:41;;;;;;;6.53;2.00;;;9.40;99.90;;;;;;5086683;28;20185;-84
2022/11/08 02:42:12;;;;;;;5.00;2.10;;;9.40;99.90;;;;;;5088460;28;20210;-80
2022/11/08 02:44:37;;;;;;;5.70;2.10;;;9.50;99.90;;;;;;5086490;28;20201;-79
2022/11/08 02:47:03;;;;;;;4.40;2.37;;;9.80;99.90;;;;;;5084919;28;20238;-83
2022/11/08 02:49:28;;;;;;;6.47;2.50;;;9.90;99.90;;;;;;5083749;28;20733;-79
2022/11/08 02:51:54;;;;;;;7.27;2.40;;;9.70;99.90;;;;;;5084828;28;20266;-80
2022/11/08 02:54:20;;;;;;;4.20;2.43;;;9.80;99.90;;;;;;5084014;28;20200;-81
2022/11/08 02:56:45;;;;;;;6.17;2.33;;;9.70;99.90;;;;;;5083636;28;20212;-81
2022/11/08 02:59:11;;;;;;;4.10;2.17;;;9.60;99.90;;;;;;5082423;28;20183;-82
2022/11/08 03:01:36;;;;;;;4.27;2.20;;;10.00;99.90;;;;;;5083236;28;20588;-85
2022/11/08 03:04:02;;;;;;;5.00;2.37;;;9.70;99.90;;;;;;5084987;28;20645;-84
2022/11/08 03:06:28;;;;;;;4.23;2.20;;;9.90;99.90;;;;;;5084432;28;20181;-81
2022/11/08 03:08:53;;;;;;;6.20;2.50;;;10.00;99.90;;;;;;5084961;28;20239;-79
2022/11/08 03:11:19;;;;;;;5.60;2.43;;;10.60;99.90;;;;;;5084843;28;20192;-82
2022/11/08 03:13:44;;;;;;;5.43;2.40;;;10.90;99.90;;;;;;5083070;28;20205;-84
2022/11/08 03:16:10;;;;;;;8.50;2.33;;;10.50;99.90;;;;;;5084568;28;20524;-82
2022/11/08 03:18:35;;;;;;;5.63;1.93;;;10.80;91.50;;;;;;5083185;28;20189;-82
2022/11/08 03:21:01;;;;;;;5.27;1.90;;;10.80;72.20;;;;;;5084801;28;20268;-83
2022/11/08 03:23:27;;;;;;;5.03;2.07;;;10.90;37.50;;;;;;5082707;28;20219;-84
2022/11/08 03:25:53;;;;;;;4.83;1.90;;;11.00;32.00;;;;;;5085415;28;20181;-79
2022/11/08 03:28:19;;;;;;;6.37;1.93;;;10.90;28.40;;;;;;5087483;28;20246;-80
2022/11/08 03:30:44;;;;;;;4.63;2.10;;;11.20;22.80;;;;;;5087756;28;20638;-83
2022/11/08 03:33:10;;;;;;;3.50;1.90;;;10.90;23.20;;;;;;5086262;28;20196;-80
2022/11/08 03:35:35;;;;;;;4.60;2.20;;;11.00;24.90;;;;;;5087851;28;20232;-80
2022/11/08 03:38:01;;;;;;;5.43;2.43;;;10.90;30.00;;;;;;5086415;28;20211;-81
2022/11/08 03:40:27;;;;;;;6.57;2.40;;;10.70;41.90;;;;;;5087707;28;20203;-81
2022/11/08 03:42:56;;;;;;;5.43;2.50;;;10.70;34.10;;;;;;5085393;28;20806;-82
2022/11/08 03:45:21;;;;;;;5.43;2.10;;;10.60;37.40;;;;;;5086307;28;20204;-84
2022/11/08 03:47:47;;;;;;;2.47;1.67;;;10.50;48.10;;;;;;5088049;28;20249;-84
2022/11/08 03:50:14;;;;;;;4.67;1.80;;;10.40;56.90;;;;;;5086739;28;20192;-80
2022/11/08 03:52:46;;;;;;;3.43;1.93;;;10.40;63.20;;;;;;5087466;28;20271;-84
2022/11/08 03:55:12;;;;;;;3.27;1.90;;;10.40;62.30;;;;;;5087361;28;20208;-81
2022/11/08 03:57:41;;;;;;;5.17;2.10;;;10.30;78.60;;;;;;5086119;28;20181;-85
2022/11/08 04:00:10;;;;;;;3.90;1.80;;;10.50;61.60;;;;;;5086469;28;20654;-81
2022/11/08 04:02:36;;;;;;;6.03;1.80;;;10.30;66.90;;;;;;5085960;28;20184;-82
2022/11/08 04:05:01;;;;;;;3.50;1.80;;;10.40;72.10;;;;;;5086523;28;20204;-81
2022/11/08 04:07:27;;;;;;;4.47;2.00;;;10.20;78.70;;;;;;5088098;28;20650;-83
2022/11/08 04:09:54;;;;;;;4.47;2.00;;;10.40;73.80;;;;;;5087076;28;20611;-80
2022/11/08 04:15:13;;;;;;;3.97;2.07;;;10.40;57.00;;;;;;5087662;28;20857;-84
2022/11/08 04:23:09;;;;;;;5.97;2.23;;;10.50;50.80;;;;;;5086796;28;20187;-80
2022/11/08 04:25:34;;;;;;;6.17;2.23;;;10.60;37.50;;;;;;5084340;28;20196;-83
2022/11/08 04:28:00;;;;;;;5.80;2.13;;;10.50;39.70;;;;;;5084520;28;20893;-79
2022/11/08 04:30:25;;;;;;;4.67;1.87;;;10.40;47.70;;;;;;5086097;28;20231;-80
2022/11/08 04:32:51;;;;;;;4.20;1.90;;;10.40;56.90;;;;;;5085693;28;20534;-82
2022/11/08 04:35:17;;;;;;;5.83;2.30;;;10.60;41.10;;;;;;5085970;28;20216;-83
2022/11/08 04:37:42;;;;;;;3.43;1.60;;;10.90;46.40;;;;;;5084089;28;20238;-80
2022/11/08 04:40:08;;;;;;;4.17;1.97;;;10.40;42.10;;;;;;5086108;28;20218;-80
2022/11/08 04:42:34;;;;;;;4.30;2.00;;;10.30;50.00;;;;;;5085594;28;20180;-80
2022/11/08 04:45:00;;;;;;;3.63;1.97;;;10.90;51.50;;;;;;5084401;28;21081;-80
2022/11/08 04:47:27;;;;;;;2.97;2.27;;;10.60;64.00;;;;;;5084422;28;20271;-80
2022/11/08 04:49:53;;;;;;;4.47;2.03;;;10.30;65.00;;;;;;5085076;28;20605;-80
2022/11/08 04:52:19;;;;;;;6.83;2.10;;;10.10;79.30;;;;;;5083887;28;20184;-83
2022/11/08 04:54:45;;;;;;;5.00;1.90;;;10.20;78.40;;;;;;5084675;28;20316;-83
2022/11/08 04:57:11;;;;;;;4.37;2.47;;;10.30;72.00;;;;;;5085388;28;20212;-80
2022/11/08 04:59:38;;;;;;;5.17;2.20;;;10.00;81.70;;;;;;5083903;28;20188;-80
2022/11/08 05:02:04;;;;;;;6.33;2.53;;;9.90;96.90;;;;;;5085141;28;20276;-79
2022/11/08 05:04:30;;;;;;;4.67;2.10;;;10.10;98.20;;;;;;5085120;28;20197;-85
2022/11/08 05:06:55;;;;;;;6.47;2.53;;;10.00;99.90;;;;;;5083740;28;20238;-80
2022/11/08 05:09:21;;;;;;;5.93;2.10;;;9.90;99.90;;;;;;5083781;28;20191;-80
2022/11/08 05:11:47;;;;;;;5.33;2.10;;;10.50;99.90;;;;;;5083773;28;20565;-80
2022/11/08 05:14:12;;;;;;;4.80;1.83;;;10.00;99.90;;;;;;5084953;28;20217;-83
2022/11/08 05:16:38;;;;;;;2.97;2.03;;;10.20;99.90;;;;;;5084368;28;20259;-80
2022/11/08 05:19:04;;;;;;;4.30;1.97;;;9.60;99.90;;;;;;5085593;28;20185;-80
2022/11/08 05:24:16;;;;;;;4.90;2.00;;;9.60;99.90;;;;;;5088428;28;20239;-86
2022/11/08 05:26:43;;;;;;;5.80;2.60;;;9.70;99.90;;;;;;5088211;28;20639;-80
2022/11/08 05:29:10;;;;;;;4.17;2.10;;;9.10;99.90;;;;;;5089172;28;20204;-80
2022/11/08 05:31:35;;;;;;;5.50;2.13;;;9.40;99.90;;;;;;5087712;28;20677;-81
2022/11/08 05:34:01;;;;;;;3.87;1.97;;;8.90;99.90;;;;;;5089484;28;20288;-81
2022/11/08 05:36:27;;;;;;;5.07;2.20;;;8.90;99.90;;;;;;5089161;28;20212;-80
2022/11/08 05:38:53;;;;;;;5.47;2.10;;;8.80;99.90;;;;;;5089404;28;20654;-80
2022/11/08 05:41:20;;;;;;;3.60;2.00;;;8.90;99.90;;;;;;5089389;28;20203;-81
2022/11/08 05:43:48;;;;;;;5.03;2.33;;;8.60;99.90;;;;;;5089253;28;20265;-82
2022/11/08 05:46:15;;;;;;;4.13;2.00;;;8.90;99.90;;;;;;5087524;28;20232;-80
2022/11/08 05:48:41;;;;;;;5.30;2.40;;;8.60;99.90;;;;;;5087376;28;20242;-80
2022/11/08 05:51:07;;;;;;;2.70;2.20;;;9.30;99.90;;;;;;5087890;28;20192;-80
2022/11/08 05:53:33;;;;;;;4.10;2.30;;;8.50;99.90;;;;;;5089007;28;20185;-82
2022/11/08 05:56:01;;;;;;;4.67;2.30;;;8.40;99.90;;;;;;5088971;28;20211;-82
2022/11/08 05:58:27;;;;;;;5.30;2.40;;;8.50;99.90;;;;;;5087341;28;20199;-83
2022/11/08 06:01:05;;;;;;;4.53;2.50;;;8.50;99.90;;;;;;5089787;28;20557;-80
2022/11/08 06:03:31;;;;;;;4.97;2.53;;;8.40;99.90;;;;;;5078454;28;20646;-82
2022/11/08 06:06:05;;;;;;;5.23;2.60;;;8.50;99.90;;;;;;5087902;28;20318;-82
2022/11/08 06:08:31;;;;;;;5.53;2.60;;;8.40;99.90;;;;;;5087418;28;20226;-82
2022/11/08 06:11:04;;;;;;;5.00;2.50;;;8.60;99.90;;;;;;5087883;28;20637;-81
2022/11/08 06:13:30;;;;;;;4.63;2.47;;;8.30;99.90;;;;;;5088375;28;21109;-82
2022/11/08 06:16:02;;;;;;;6.83;2.90;;;8.80;1.00;;;;;;5087121;28;20239;-82
2022/11/08 06:18:29;;;;;;;5.23;2.50;;;8.20;1.00;;;;;;5088984;28;20180;-80
2022/11/08 06:20:57;;;;;;;5.60;2.60;;;8.20;1.00;;;;;;5087444;28;20193;-80
2022/11/08 06:23:22;;;;;;;8.23;4.20;;;8.40;1.00;;;;;;5087429;28;20673;-80
2022/11/08 06:25:48;;;;;;;9.27;4.30;;;8.10;1.00;;;;;;5088748;28;20200;-81
2022/11/08 06:28:14;;;;;;;7.77;3.10;;;8.20;1.00;;;;;;5087489;28;20193;-80
2022/11/08 06:30:40;;;;;;;5.60;3.03;;;8.00;1.00;;;;;;5088856;28;20200;-82
2022/11/08 06:33:05;;;;;;;6.30;2.80;;;8.20;1.00;;;;;;5089000;28;20634;-84
2022/11/08 06:35:31;;;;;;;5.73;3.00;;;9.00;1.00;;;;;;5088674;28;20351;-82
2022/11/08 06:37:57;;;;;;;5.03;2.70;;;8.40;1.00;;;;;;5088517;28;20187;-81
2022/11/08 06:40:22;;;;;;;7.60;2.70;;;8.40;1.00;;;;;;5088451;28;20215;-83
2022/11/08 06:42:48;;;;;;;6.00;3.00;;;8.40;1.00;;;;;;5088852;28;20255;-86
2022/11/08 06:45:13;;;;;;;6.10;2.73;;;8.40;1.00;;;;;;5087682;28;20208;-81
2022/11/08 06:47:39;;;;;;;5.40;2.40;;;8.40;1.00;;;;;;5086791;28;20185;-83
2022/11/08 06:50:05;;;;;;;7.23;2.80;;;8.50;1.00;;;;;;5087757;28;20181;-80
2022/11/08 06:52:31;;;;;;;6.17;2.50;;;8.40;1.00;;;;;;5088300;28;20181;-83
2022/11/08 06:54:57;;;;;;;5.23;2.57;;;8.40;1.00;;;;;;5085700;28;20207;-81
2022/11/08 06:57:22;;;;;;;4.13;2.47;;;8.50;1.00;;;;;;5086844;28;20193;-83
2022/11/08 06:59:48;;;;;;;5.47;2.67;;;8.60;99.90;;;;;;5089177;28;20181;-81
2022/11/08 07:02:13;;;;;;;5.07;2.70;;;8.60;99.90;;;;;;5086950;28;20187;-83
2022/11/08 07:04:39;;;;;;;6.40;2.73;;;8.60;99.90;;;;;;5088695;28;20212;-82
2022/11/08 07:07:04;;;;;;;6.07;2.80;;;8.60;99.90;;;;;;5097549;28;20195;-83
2022/11/08 07:09:30;;;;;;;3.43;2.20;;;9.10;99.90;;;;;;5089289;28;20189;-83
2022/11/08 07:11:56;;;;;;;5.60;2.70;;;8.80;99.90;;;;;;5089339;28;20571;-85
2022/11/08 07:14:21;;;;;;;5.77;2.63;;;8.80;99.90;;;;;;5088123;28;20256;-83
2022/11/08 07:16:47;;;;;;;5.03;2.40;;;8.90;99.90;;;;;;5090913;28;20246;-80
2022/11/08 07:19:13;;;;;;;6.03;2.47;;;9.00;99.90;;;;;;5086405;28;20185;-80
2022/11/08 07:21:39;;;;;;;7.27;2.73;;;9.10;99.90;;;;;;5085782;28;20195;-80
2022/11/08 07:24:05;;;;;;;5.47;2.40;;;9.20;99.90;;;;;;5085474;28;20227;-82
2022/11/08 07:26:30;;;;;;;5.50;2.37;;;9.30;99.90;;;;;;5085586;28;20189;-81
2022/11/08 07:28:56;;;;;;;4.87;2.50;;;9.50;99.90;;;;;;5085254;28;20200;-82
2022/11/08 07:31:22;;;;;;;3.93;2.50;;;9.50;99.90;;;;;;5086600;28;20210;-83
2022/11/08 07:33:49;;;;;;;6.23;2.70;;;9.40;99.90;;;;;;5085668;28;20295;-80
2022/11/08 07:36:14;;;;;;;5.00;2.63;;;9.70;99.90;;;;;;5084998;28;20755;-82
2022/11/08 07:38:40;;;;;;;5.60;2.93;;;9.50;99.90;;;;;;5085136;28;20188;-83
2022/11/08 07:41:06;;;;;;;7.33;2.57;;;9.30;99.90;;;;;;5086231;28;20184;-85
2022/11/08 07:43:31;;;;;;;6.10;2.43;;;10.20;99.90;;;;;;5084940;28;20212;-81
2022/11/08 07:45:59;;;;;;;5.20;2.30;;;9.50;99.90;;;;;;5084684;28;20204;-82
2022/11/08 07:48:26;;;;;;;7.53;2.57;;;9.30;99.90;;;;;;5085176;28;20212;-80
2022/11/08 07:50:52;;;;;;;4.10;2.40;;;9.40;99.90;;;;;;5086277;28;20199;-81
2022/11/08 07:53:18;;;;;;;4.70;2.87;;;9.40;99.90;;;;;;5086321;28;20184;-83
2022/11/08 07:55:45;;;;;;;7.87;2.87;;;9.50;99.90;;;;;;5084457;28;20212;-80
2022/11/08 07:58:11;;;;;;;6.67;2.77;;;9.60;99.90;;;;;;5085567;28;20258;-81
2022/11/08 08:00:39;;;;;;;6.43;3.37;;;9.50;99.90;;;;;;5083834;28;20662;-82
2022/11/08 08:03:06;;;;;;;4.90;2.70;;;9.70;99.90;;;;;;5085884;28;20180;-83
2022/11/08 08:05:34;;;;;;;6.97;3.13;;;9.80;99.90;;;;;;5084433;28;20205;-80
2022/11/08 08:08:01;;;;;;;4.57;2.70;;;10.00;99.90;;;;;;5084091;28;20212;-84
2022/11/08 08:10:27;;;;;;;4.70;2.60;;;10.00;99.90;;;;;;5084561;28;20200;-80
2022/11/08 08:12:54;;;;;;;6.67;2.53;;;10.30;99.90;;;;;;5084916;28;20193;-83
2022/11/08 08:15:20;;;;;;;7.80;3.03;;;10.50;99.90;;;;;;5085069;28;20294;-81
2022/11/08 08:17:46;;;;;;;7.97;3.27;;;10.50;99.90;;;;;;5086011;28;20189;-81
2022/11/08 08:20:12;;;;;;;5.30;2.70;;;11.50;99.90;;;;;;5086358;28;20188;-81
2022/11/08 08:22:48;;;;;;;6.33;2.50;;;10.90;99.90;;;;;;5084333;28;20181;-81
2022/11/08 08:25:15;;;;;;;5.90;2.40;;;11.10;90.70;;;;;;5085369;28;20204;-82
2022/11/08 08:27:46;;;;;;;5.50;2.30;;;11.40;45.30;;;;;;5083796;28;20250;-81
2022/11/08 08:30:11;;;;;;;5.30;2.40;;;11.70;13.50;;;;;;5086781;28;20188;-80
2022/11/08 08:32:37;;;;;;;5.73;2.53;;;11.70;4.80;;;;;;5085816;28;20609;-80
2022/11/08 08:35:03;;;;;;;3.70;2.10;;;11.60;5.40;;;;;;5084138;28;20760;-81
2022/11/08 08:37:28;;;;;;;3.47;2.20;;;11.70;7.00;;;;;;5083916;28;20197;-80
2022/11/08 08:39:54;;;;;;;5.27;2.20;;;11.60;6.70;;;;;;5085598;28;20181;-81
2022/11/08 08:42:20;;;;;;;5.13;2.53;;;11.60;6.80;;;;;;5083755;28;20216;-84
2022/11/08 08:44:46;;;;;;;10.05;2.33;;;11.60;9.80;;;;;;5082337;28;20673;-80
2022/11/08 08:47:11;;;;;;;4.33;2.33;;;11.60;16.90;;;;;;5084159;28;20191;-81
2022/11/08 08:49:37;;;;;;;6.57;2.40;;;11.50;25.10;;;;;;5083254;28;20283;-80
2022/11/08 08:52:02;;;;;;;4.70;2.23;;;11.40;32.50;;;;;;5082916;28;20196;-81
2022/11/08 08:54:28;;;;;;;7.10;2.60;;;11.40;45.30;;;;;;5081904;28;20704;-80
2022/11/08 08:56:54;;;;;;;4.80;2.17;;;11.30;54.30;;;;;;5084524;28;20269;-81
2022/11/08 08:59:20;;;;;;;4.90;2.37;;;11.40;70.10;;;;;;5085503;28;20185;-80
2022/11/08 09:01:45;;;;;;;3.90;2.10;;;11.70;81.50;;;;;;5086990;28;20188;-83
2022/11/08 09:04:11;;;;;;;4.60;2.17;;;11.60;73.30;;;;;;5087762;28;20239;-80
2022/11/08 09:06:36;;;;;;;4.78;2.00;;;11.70;77.10;;;;;;5088192;28;20323;-80
2022/11/08 09:09:02;;;;;;;3.17;1.80;;;11.90;67.90;;;;;;5087063;28;20192;-80
2022/11/08 09:11:28;;;;;;;5.43;1.90;;;12.10;27.80;;;;;;5088342;28;20184;-83
2022/11/08 09:13:53;;;;;;;3.55;1.60;;;12.30;26.00;;;;;;5088121;28;20213;-82
2022/11/08 09:16:19;;;;;;;5.30;1.70;;;12.30;12.30;;;;;;5085738;28;20483;-81
2022/11/08 09:18:44;;;;;;;5.87;1.67;;;12.30;9.40;;;;;;5087354;28;20188;-80
2022/11/08 09:21:10;;;;;;;3.60;1.60;;;12.20;1.00;;;;;;5088232;28;20211;-83
2022/11/08 09:23:35;;;;;;;4.05;1.67;;;12.30;1.00;;;;;;5086627;28;20279;-83
2022/11/08 09:26:04;;;;;;;6.40;2.00;;;12.20;1.00;;;;;;5086800;28;20188;-81
2022/11/08 09:28:32;;;;;;;6.80;1.93;;;12.20;1.00;;;;;;5086522;28;20189;-82
2022/11/08 09:31:06;;;;;;;5.40;1.50;;;12.30;1.70;;;;;;5088378;28;20655;-82
2022/11/08 09:33:32;;;;;;;3.45;1.40;;;12.40;1.00;;;;;;5086201;28;20540;-81
2022/11/08 09:36:00;;;;;;;5.80;1.85;;;12.40;1.00;;;;;;5086588;28;20553;-80
2022/11/08 09:38:25;;;;;;;3.90;1.75;;;12.30;1.00;;;;;;5088015;28;20221;-83
2022/11/08 09:41:01;;;;;;;2.30;1.60;;;12.50;1.00;;;;;;5088052;28;20181;-82
2022/11/08 09:43:48;;;;;;;3.35;1.40;;;12.50;1.00;;;;;;5090981;28;20198;-82
2022/11/08 09:46:27;;;;;;;4.60;1.60;;;12.60;1.00;;;;;;5090672;28;20674;-82
2022/11/08 09:48:54;;;;;;;3.42;1.67;;;12.70;1.00;;;;;;5089437;28;20189;-82
2022/11/08 09:51:22;;;;;;;4.55;1.50;;;12.70;1.00;;;;;;5090863;28;20262;-82
2022/11/08 09:53:50;;;;;;;3.88;1.75;;;12.60;1.00;;;;;;5090785;28;20204;-83
2022/11/08 09:56:29;;;;;;;2.13;1.35;;;12.70;1.00;;;;;;5090729;28;20240;-83
2022/11/08 09:59:02;;;;;;;3.08;1.60;;;12.60;1.00;;;;;;5089480;28;20657;-83
2022/11/08 10:01:34;;;;;;;3.80;1.60;;;12.60;1.00;;;;;;5084287;28;20203;-82
2022/11/08 10:04:05;;;;;;;5.13;2.15;;;12.80;1.00;;;;;;5087683;28;20204;-82
2022/11/08 10:06:43;;;;;;;4.10;1.55;;;12.60;1.00;;;;;;5086284;28;20185;-83
2022/11/08 10:09:26;;;;;;;4.13;2.17;;;12.70;1.00;;;;;;5086765;28;20285;-84
2022/11/08 10:12:07;;;;;;;2.35;1.60;;;12.50;1.00;;;;;;5085275;28;20193;-84
2022/11/08 10:14:39;;;;;;;4.22;1.80;;;12.60;1.00;;;;;;5083326;28;20208;-83
2022/11/08 10:17:46;;;;;;;4.82;1.80;;;12.50;1.00;;;;;;5085402;28;20810;-83
2022/11/08 10:20:35;;;;;;;2.55;1.40;;;12.50;1.00;;;;;;5083699;28;20186;-83
2022/11/08 10:23:07;;;;;;;2.92;1.55;;;12.60;1.00;;;;;;5086798;28;20199;-83
2022/11/08 10:25:45;;;;;;;2.88;1.33;;;12.70;1.00;;;;;;5087574;28;20212;-82
2022/11/08 10:28:15;;;;;;;4.05;1.67;;;12.80;1.00;;;;;;5086460;28;20211;-82
2022/11/08 10:30:45;;;;;;;4.70;1.50;;;12.80;1.00;;;;;;5087283;28;20185;-84
2022/11/08 10:33:25;;;;;;;3.50;1.40;;;12.80;1.00;;;;;;5084712;28;20241;-83
2022/11/08 10:36:12;;;;;;;3.13;1.55;;;12.90;1.00;;;;;;5086362;28;20212;-82
2022/11/08 10:38:59;;;;;;;3.85;1.60;;;12.90;1.00;;;;;;5086325;28;20181;-83
2022/11/08 10:41:39;;;;;;;4.60;1.50;;;13.00;1.00;;;;;;5086710;28;20181;-83
2022/11/08 10:44:19;;;;;;;6.45;1.80;;;13.20;1.00;;;;;;5085852;28;20693;-82
2022/11/08 10:46:54;;;;;;;8.80;2.70;;;13.30;1.00;;;;;;5086615;28;20676;-82
2022/11/08 10:49:22;;;;;;;4.05;1.52;;;13.40;1.00;;;;;;5088237;28;20195;-83
2022/11/08 10:51:53;;;;;;;3.42;1.50;;;13.60;1.00;;;;;;5087938;28;20196;-83
2022/11/08 10:54:56;;;;;;;6.28;1.85;;;13.70;1.00;;;;;;5086655;28;20204;-83
2022/11/08 10:57:35;;;;;;;4.68;1.50;;;13.90;1.00;;;;;;5084973;28;20269;-84
2022/11/08 11:00:22;;;;;;;5.82;1.40;;;14.10;1.00;;;;;;5087309;28;20695;-82
2022/11/08 11:03:10;;;;;;;3.70;1.83;;;14.30;1.00;;;;;;5086945;28;20687;-80
2022/11/08 11:05:42;;;;;;;4.45;1.17;;;14.40;1.00;;;;;;5077985;28;20217;-83
2022/11/08 11:08:08;;;;;;;2.08;1.10;;;14.60;1.00;;;;;;5088748;28;20177;-82
2022/11/08 11:10:34;;;;;;;5.32;1.48;;;14.70;1.00;;;;;;5088310;28;20200;-83
2022/11/08 11:13:26;;;;;;;3.40;1.35;;;14.90;1.00;;;;;;5087939;28;20185;-83
2022/11/08 11:15:57;;;;;;;3.03;1.20;;;14.90;1.00;;;;;;5087811;28;20216;-84
2022/11/08 11:18:48;;;;;;;1.85;1.35;;;15.00;1.00;;;;;;5086328;28;20223;-82
2022/11/08 11:21:20;;;;;;;3.08;1.60;;;14.90;1.00;;;;;;5085922;28;20176;-82
2022/11/08 11:23:53;;;;;;;2.50;0.88;;;15.00;1.00;;;;;;5088750;28;20181;-82
2022/11/08 11:26:33;;;;;;;3.83;1.38;;;15.00;1.00;;;;;;5085989;28;20188;-84
2022/11/08 11:29:04;;;;;;;2.53;0.95;;;15.10;1.00;;;;;;5088067;28;20326;-82
2022/11/08 11:31:39;;;;;;;2.83;1.17;;;15.20;1.00;;;;;;5087538;28;20181;-84
2022/11/08 11:34:16;;;;;;;2.17;0.95;;;15.20;1.00;;;;;;5086773;28;20207;-83
2022/11/08 11:36:49;;;;;;;4.13;1.13;;;15.30;1.00;;;;;;5086787;28;20208;-83
2022/11/08 11:39:30;;;;;;;1.15;0.90;;;15.30;1.00;;;;;;5078172;28;21009;-81
2022/11/08 11:42:04;;;;;;;2.35;0.75;;;15.30;1.00;;;;;;5088355;28;20272;-83
2022/11/08 11:44:51;;;;;;;1.02;0.88;;;15.40;1.00;;;;;;5087556;28;20205;-82
2022/11/08 11:47:26;;;;;;;1.05;0.90;;;15.30;1.00;;;;;;5086041;28;20197;-83
2022/11/08 11:49:54;;;;;;;2.13;0.90;;;15.40;1.00;;;;;;5087312;28;20191;-83
2022/11/08 11:52:20;;;;;;;1.80;0.88;;;15.40;1.00;;;;;;5088398;28;20181;-81
2022/11/08 11:54:48;;;;;;;1.63;0.80;;;15.30;1.00;;;;;;5087756;28;20209;-83
2022/11/08 11:57:49;;;;;;;0.95;0.80;;;15.30;1.00;;;;;;5086712;28;20234;-82
2022/11/08 12:00:16;;;;;;;1.88;0.85;;;15.30;1.00;;;;;;5084400;28;20196;-82
2022/11/08 12:03:13;;;;;;;1.70;1.02;;;15.20;1.00;;;;;;5088508;28;20206;-83
2022/11/08 12:06:10;;;;;;;1.48;0.80;;;15.20;1.00;;;;;;5087399;28;20694;-83
2022/11/08 12:09:06;;;;;;;1.08;0.70;;;15.20;1.00;;;;;;5087664;28;20325;-82
2022/11/08 12:11:32;;;;;;;2.92;0.82;;;15.10;1.00;;;;;;5086439;28;20176;-83
2022/11/08 12:14:00;;;;;;;2.75;0.93;;;15.00;1.00;;;;;;5086010;28;20281;-82
2022/11/08 12:16:40;;;;;;;2.47;0.93;;;15.10;1.00;;;;;;5087528;28;20215;-83
2022/11/08 12:19:42;;;;;;;1.60;1.10;;;15.00;1.00;;;;;;5085471;28;20181;-83
2022/11/08 12:22:38;;;;;;;3.45;1.27;;;14.90;1.00;;;;;;5085267;28;20537;-84
2022/11/08 12:25:12;;;;;;;0.95;0.88;;;14.90;1.00;;;;;;5086985;28;20197;-83
2022/11/08 12:27:45;;;;;;;1.55;0.85;;;15.00;1.00;;;;;;5088100;28;20214;-83
2022/11/08 12:30:18;;;;;;;1.00;0.90;;;15.00;1.00;;;;;;5087551;28;20181;-83
2022/11/08 12:33:05;;;;;;;1.13;0.80;;;15.10;1.00;;;;;;5083057;28;20254;-83
2022/11/08 12:35:49;;;;;;;2.58;0.82;;;15.10;1.00;;;;;;5091612;28;20272;-82
2022/11/08 12:38:37;;;;;;;1.35;0.80;;;15.10;1.00;;;;;;5096649;28;20199;-84
2022/11/08 12:41:23;;;;;;;1.75;1.00;;;15.10;1.00;;;;;;5110568;28;20189;-84
2022/11/08 12:44:23;;;;;;;1.90;0.80;;;15.20;1.00;;;;;;5091401;28;20192;-83
2022/11/08 12:47:07;;;;;;;1.92;0.90;;;15.30;1.00;;;;;;5093262;28;20229;-83
2022/11/08 12:49:42;;;;;;;1.95;0.80;;;15.40;1.00;;;;;;5091600;28;20666;-83
2022/11/08 12:52:11;;;;;;;1.23;0.70;;;15.60;1.00;;;;;;5092449;28;20235;-84
2022/11/08 12:54:47;;;;;;;1.50;0.75;;;15.70;1.00;;;;;;5092803;28;20204;-83
2022/11/08 12:57:15;;;;;;;0.77;0.70;;;15.80;1.00;;;;;;5093157;28;20713;-84
2022/11/08 12:59:46;;;;;;;3.10;0.80;;;15.80;1.00;;;;;;5092706;28;20189;-84
2022/11/08 13:02:21;;;;;;;2.60;0.85;;;16.00;1.00;;;;;;5095650;28;20181;-83
2022/11/08 13:04:57;;;;;;;1.38;0.93;;;15.90;1.00;;;;;;5090727;28;20212;-83
2022/11/08 13:07:40;;;;;;;2.38;0.95;;;16.10;1.00;;;;;;5090902;28;20269;-82
2022/11/08 13:10:42;;;;;;;1.55;0.90;;;16.40;1.00;;;;;;5092628;28;20616;-84
2022/11/08 13:13:26;;;;;;;4.97;1.63;;;16.40;1.00;;;;;;5092325;28;20250;-82
2022/11/08 13:16:10;;;;;;;1.30;1.05;;;16.60;1.00;;;;;;5090568;28;20697;-83
2022/11/08 13:18:44;;;;;;;5.85;1.30;;;16.60;1.00;;;;;;5090464;28;20180;-83
2022/11/08 13:21:40;;;;;;;1.85;0.90;;;16.60;1.00;;;;;;5090212;28;20180;-81
2022/11/08 13:24:06;;;;;;;6.25;1.17;;;16.50;1.00;;;;;;5084710;28;20212;-82
2022/11/08 13:26:40;;;;;;;4.75;1.73;;;16.40;1.00;;;;;;5089240;28;20185;-81
2022/11/08 13:29:15;;;;;;;1.98;1.35;;;16.30;1.00;;;;;;5090730;28;20217;-83
2022/11/08 13:31:54;;;;;;;1.90;0.95;;;16.10;1.00;;;;;;5089122;28;20204;-83